sensor_id;sensor_type;location;lat;lon;timestamp;temperature;humidity
12268;DHT22;6196;48.398;11.736;2023-03-14T00:02:14;11.20;99.90
12268;DHT22;6196;48.398;11.736;2023-03-14T00:04:41;11.10;99.90
12268;DHT22;6196;48.398;11.736;2023-03-14T00:07:11;11.00;99.90
12268;DHT22;6196;48.398;11.736;2023-03-14T00:09:39;10.80;99.90
12268;DHT22;6196;48.398;11.736;2023-03-14T00:12:06;10.80;99.90
12268;DHT22;6196;48.398;11.736;2023-03-14T00:14:33;10.80;99.90
12268;DHT22;6196;48.398;11.736;2023-03-14T00:17:00;10.70;99.90
12268;DHT22;6196;48.398;11.736;2023-03-14T00:19:27;10.60;99.90
12268;DHT22;6196;48.398;11.736;2023-03-14T00:21:54;10.60;99.90
12268;DHT22;6196;48.398;11.736;2023-03-14T00:24:21;10.60;99.90
12268;DHT22;6196;48.398;11.736;2023-03-14T00:26:48;10.70;99.90
12268;DHT22;6196;48.398;11.736;2023-03-14T00:29:14;10.60;99.90
12268;DHT22;6196;48.398;11.736;2023-03-14T00:31:41;10.50;99.90
12268;DHT22;6196;48.398;11.736;2023-03-14T00:34:08;10.60;99.90
12268;DHT22;6196;48.398;11.736;2023-03-14T00:36:35;10.50;99.90
12268;DHT22;6196;48.398;11.736;2023-03-14T00:39:02;10.50;99.90
12268;DHT22;6196;48.398;11.736;2023-03-14T00:41:29;10.50;99.90
12268;DHT22;6196;48.398;11.736;2023-03-14T00:43:56;10.50;99.90
12268;DHT22;6196;48.398;11.736;2023-03-14T00:46:23;10.50;99.90
12268;DHT22;6196;48.398;11.736;2023-03-14T00:48:50;10.50;99.90
12268;DHT22;6196;48.398;11.736;2023-03-14T00:51:17;10.50;99.90
12268;DHT22;6196;48.398;11.736;2023-03-14T00:53:44;10.50;99.90
12268;DHT22;6196;48.398;11.736;2023-03-14T00:56:12;10.50;99.90
12268;DHT22;6196;48.398;11.736;2023-03-14T00:58:40;10.50;99.90
12268;DHT22;6196;48.398;11.736;2023-03-14T01:01:09;10.50;99.90
12268;DHT22;6196;48.398;11.736;2023-03-14T01:03:39;10.50;99.90
12268;DHT22;6196;48.398;11.736;2023-03-14T01:06:12;10.60;99.90
12268;DHT22;6196;48.398;11.736;2023-03-14T01:08:44;10.60;99.90
12268;DHT22;6196;48.398;11.736;2023-03-14T01:11:14;10.60;99.90
12268;DHT22;6196;48.398;11.736;2023-03-14T01:13:49;10.60;99.90
12268;DHT22;6196;48.398;11.736;2023-03-14T01:16:16;10.70;99.90
12268;DHT22;6196;48.398;11.736;2023-03-14T01:18:45;10.70;99.90
12268;DHT22;6196;48.398;11.736;2023-03-14T01:23:46;10.70;99.90
12268;DHT22;6196;48.398;11.736;2023-03-14T01:26:16;10.70;99.90
12268;DHT22;6196;48.398;11.736;2023-03-14T01:28:46;10.70;99.90
12268;DHT22;6196;48.398;11.736;2023-03-14T01:31:15;10.60;99.90
12268;DHT22;6196;48.398;11.736;2023-03-14T01:33:42;10.60;99.90
12268;DHT22;6196;48.398;11.736;2023-03-14T01:36:10;10.50;99.90
12268;DHT22;6196;48.398;11.736;2023-03-14T01:38:39;10.50;99.90
12268;DHT22;6196;48.398;11.736;2023-03-14T01:41:19;10.50;99.90
12268;DHT22;6196;48.398;11.736;2023-03-14T01:43:48;10.50;99.90
12268;DHT22;6196;48.398;11.736;2023-03-14T01:46:35;10.60;99.90
12268;DHT22;6196;48.398;11.736;2023-03-14T01:52:00;10.50;99.90
12268;DHT22;6196;48.398;11.736;2023-03-14T01:57:32;10.40;99.90
12268;DHT22;6196;48.398;11.736;2023-03-14T02:00:06;10.30;99.90
12268;DHT22;6196;48.398;11.736;2023-03-14T02:02:50;10.30;99.90
12268;DHT22;6196;48.398;11.736;2023-03-14T02:05:21;10.20;99.90
12268;DHT22;6196;48.398;11.736;2023-03-14T02:07:53;10.00;99.90
12268;DHT22;6196;48.398;11.736;2023-03-14T02:10:26;9.90;99.90
12268;DHT22;6196;48.398;11.736;2023-03-14T02:12:56;9.80;99.90
12268;DHT22;6196;48.398;11.736;2023-03-14T02:15:23;9.70;99.90
12268;DHT22;6196;48.398;11.736;2023-03-14T02:17:51;9.70;99.90
12268;DHT22;6196;48.398;11.736;2023-03-14T02:22:54;9.80;99.90
12268;DHT22;6196;48.398;11.736;2023-03-14T02:25:42;9.80;99.90
12268;DHT22;6196;48.398;11.736;2023-03-14T02:28:12;9.70;99.90
12268;DHT22;6196;48.398;11.736;2023-03-14T02:30:40;9.70;99.90
12268;DHT22;6196;48.398;11.736;2023-03-14T02:33:15;9.60;99.90
12268;DHT22;6196;48.398;11.736;2023-03-14T02:35:58;9.70;99.90
12268;DHT22;6196;48.398;11.736;2023-03-14T02:38:28;9.80;99.90
12268;DHT22;6196;48.398;11.736;2023-03-14T02:40:57;10.00;99.90
12268;DHT22;6196;48.398;11.736;2023-03-14T02:43:24;9.90;99.90
12268;DHT22;6196;48.398;11.736;2023-03-14T02:45:52;10.00;99.90
12268;DHT22;6196;48.398;11.736;2023-03-14T02:48:34;10.00;99.90
12268;DHT22;6196;48.398;11.736;2023-03-14T02:51:13;10.10;99.90
12268;DHT22;6196;48.398;11.736;2023-03-14T02:53:41;10.10;99.90
12268;DHT22;6196;48.398;11.736;2023-03-14T02:56:10;10.10;99.90
12268;DHT22;6196;48.398;11.736;2023-03-14T02:58:37;10.00;99.90
12268;DHT22;6196;48.398;11.736;2023-03-14T03:01:04;9.90;99.90
12268;DHT22;6196;48.398;11.736;2023-03-14T03:03:32;9.90;99.90
12268;DHT22;6196;48.398;11.736;2023-03-14T03:05:59;9.90;99.90
12268;DHT22;6196;48.398;11.736;2023-03-14T03:08:27;9.90;99.90
12268;DHT22;6196;48.398;11.736;2023-03-14T03:10:54;9.80;99.90
12268;DHT22;6196;48.398;11.736;2023-03-14T03:13:23;9.80;99.90
12268;DHT22;6196;48.398;11.736;2023-03-14T03:15:50;9.70;99.90
12268;DHT22;6196;48.398;11.736;2023-03-14T03:18:17;9.80;99.90
12268;DHT22;6196;48.398;11.736;2023-03-14T03:20:44;9.80;99.90
12268;DHT22;6196;48.398;11.736;2023-03-14T03:23:12;9.80;99.90
12268;DHT22;6196;48.398;11.736;2023-03-14T03:25:39;9.80;99.90
12268;DHT22;6196;48.398;11.736;2023-03-14T03:28:06;9.80;99.90
12268;DHT22;6196;48.398;11.736;2023-03-14T03:30:38;9.80;99.90
12268;DHT22;6196;48.398;11.736;2023-03-14T03:33:06;9.80;99.90
12268;DHT22;6196;48.398;11.736;2023-03-14T03:35:34;9.80;99.90
12268;DHT22;6196;48.398;11.736;2023-03-14T03:38:00;9.70;99.90
12268;DHT22;6196;48.398;11.736;2023-03-14T03:40:27;9.60;99.90
12268;DHT22;6196;48.398;11.736;2023-03-14T03:42:54;9.60;99.90
12268;DHT22;6196;48.398;11.736;2023-03-14T03:45:21;9.60;99.90
12268;DHT22;6196;48.398;11.736;2023-03-14T03:47:48;9.60;99.90
12268;DHT22;6196;48.398;11.736;2023-03-14T03:50:15;9.50;99.90
12268;DHT22;6196;48.398;11.736;2023-03-14T03:52:42;9.50;99.90
12268;DHT22;6196;48.398;11.736;2023-03-14T03:55:09;9.60;99.90
12268;DHT22;6196;48.398;11.736;2023-03-14T03:57:36;9.50;99.90
12268;DHT22;6196;48.398;11.736;2023-03-14T04:00:04;9.50;99.90
12268;DHT22;6196;48.398;11.736;2023-03-14T04:02:32;9.40;99.90
12268;DHT22;6196;48.398;11.736;2023-03-14T04:04:59;9.40;99.90
12268;DHT22;6196;48.398;11.736;2023-03-14T04:07:26;9.40;99.90
12268;DHT22;6196;48.398;11.736;2023-03-14T04:09:53;9.30;99.90
12268;DHT22;6196;48.398;11.736;2023-03-14T04:12:20;9.20;99.90
12268;DHT22;6196;48.398;11.736;2023-03-14T04:14:46;9.30;99.90
12268;DHT22;6196;48.398;11.736;2023-03-14T04:17:13;9.40;99.90
12268;DHT22;6196;48.398;11.736;2023-03-14T04:19:40;9.40;99.90
12268;DHT22;6196;48.398;11.736;2023-03-14T04:22:08;9.40;99.90
12268;DHT22;6196;48.398;11.736;2023-03-14T04:24:35;9.50;99.90
12268;DHT22;6196;48.398;11.736;2023-03-14T04:27:02;9.50;99.90
12268;DHT22;6196;48.398;11.736;2023-03-14T04:29:29;9.40;99.90
12268;DHT22;6196;48.398;11.736;2023-03-14T04:31:56;9.40;99.90
12268;DHT22;6196;48.398;11.736;2023-03-14T04:34:23;9.30;99.90
12268;DHT22;6196;48.398;11.736;2023-03-14T04:36:50;9.20;99.90
12268;DHT22;6196;48.398;11.736;2023-03-14T04:39:16;9.20;99.90
12268;DHT22;6196;48.398;11.736;2023-03-14T04:41:44;9.20;99.90
12268;DHT22;6196;48.398;11.736;2023-03-14T04:44:11;9.30;99.90
12268;DHT22;6196;48.398;11.736;2023-03-14T04:46:38;9.20;99.90
12268;DHT22;6196;48.398;11.736;2023-03-14T04:49:05;9.40;99.90
12268;DHT22;6196;48.398;11.736;2023-03-14T04:51:32;9.30;99.90
12268;DHT22;6196;48.398;11.736;2023-03-14T04:53:59;9.30;99.90
12268;DHT22;6196;48.398;11.736;2023-03-14T04:56:26;9.30;99.90
12268;DHT22;6196;48.398;11.736;2023-03-14T04:58:54;9.20;99.90
12268;DHT22;6196;48.398;11.736;2023-03-14T05:01:21;9.10;99.90
12268;DHT22;6196;48.398;11.736;2023-03-14T05:03:48;9.10;99.90
12268;DHT22;6196;48.398;11.736;2023-03-14T05:06:15;8.90;99.90
12268;DHT22;6196;48.398;11.736;2023-03-14T05:08:42;9.00;99.90
12268;DHT22;6196;48.398;11.736;2023-03-14T05:11:10;9.00;99.90
12268;DHT22;6196;48.398;11.736;2023-03-14T05:13:36;9.20;99.90
12268;DHT22;6196;48.398;11.736;2023-03-14T05:16:08;9.10;99.90
12268;DHT22;6196;48.398;11.736;2023-03-14T05:18:36;9.10;99.90
12268;DHT22;6196;48.398;11.736;2023-03-14T05:21:03;9.00;99.90
12268;DHT22;6196;48.398;11.736;2023-03-14T05:23:30;8.90;99.90
12268;DHT22;6196;48.398;11.736;2023-03-14T05:25:57;9.00;99.90
12268;DHT22;6196;48.398;11.736;2023-03-14T05:28:24;9.10;99.90
12268;DHT22;6196;48.398;11.736;2023-03-14T05:30:51;9.00;99.90
12268;DHT22;6196;48.398;11.736;2023-03-14T05:33:18;9.00;99.90
12268;DHT22;6196;48.398;11.736;2023-03-14T05:35:44;9.10;99.90
12268;DHT22;6196;48.398;11.736;2023-03-14T05:38:11;9.00;99.90
12268;DHT22;6196;48.398;11.736;2023-03-14T05:40:38;9.00;99.90
12268;DHT22;6196;48.398;11.736;2023-03-14T05:43:05;9.00;99.90
12268;DHT22;6196;48.398;11.736;2023-03-14T05:45:35;8.90;99.90
12268;DHT22;6196;48.398;11.736;2023-03-14T05:48:02;9.10;99.90
12268;DHT22;6196;48.398;11.736;2023-03-14T05:50:29;9.10;99.90
12268;DHT22;6196;48.398;11.736;2023-03-14T05:52:56;9.10;99.90
12268;DHT22;6196;48.398;11.736;2023-03-14T05:55:23;9.10;99.90
12268;DHT22;6196;48.398;11.736;2023-03-14T05:57:50;9.00;99.90
12268;DHT22;6196;48.398;11.736;2023-03-14T06:00:17;9.10;99.90
12268;DHT22;6196;48.398;11.736;2023-03-14T06:02:44;9.10;99.90
12268;DHT22;6196;48.398;11.736;2023-03-14T06:05:11;9.10;99.90
12268;DHT22;6196;48.398;11.736;2023-03-14T06:07:38;9.20;99.90
12268;DHT22;6196;48.398;11.736;2023-03-14T06:10:06;9.10;99.90
12268;DHT22;6196;48.398;11.736;2023-03-14T06:12:33;9.10;99.90
12268;DHT22;6196;48.398;11.736;2023-03-14T06:15:00;9.00;99.90
12268;DHT22;6196;48.398;11.736;2023-03-14T06:17:27;9.00;99.90
12268;DHT22;6196;48.398;11.736;2023-03-14T06:19:54;9.00;99.90
12268;DHT22;6196;48.398;11.736;2023-03-14T06:22:21;9.10;99.90
12268;DHT22;6196;48.398;11.736;2023-03-14T06:24:48;9.10;99.90
12268;DHT22;6196;48.398;11.736;2023-03-14T06:27:15;9.10;99.90
12268;DHT22;6196;48.398;11.736;2023-03-14T06:29:42;9.10;99.90
12268;DHT22;6196;48.398;11.736;2023-03-14T06:32:09;9.00;99.90
12268;DHT22;6196;48.398;11.736;2023-03-14T06:34:36;9.00;99.90
12268;DHT22;6196;48.398;11.736;2023-03-14T06:37:03;9.10;99.90
12268;DHT22;6196;48.398;11.736;2023-03-14T06:39:29;9.20;99.90
12268;DHT22;6196;48.398;11.736;2023-03-14T06:41:57;9.30;99.90
12268;DHT22;6196;48.398;11.736;2023-03-14T06:44:24;9.40;99.90
12268;DHT22;6196;48.398;11.736;2023-03-14T06:46:51;9.30;99.90
12268;DHT22;6196;48.398;11.736;2023-03-14T06:49:18;9.40;99.90
12268;DHT22;6196;48.398;11.736;2023-03-14T06:51:45;9.40;99.90
12268;DHT22;6196;48.398;11.736;2023-03-14T06:54:12;9.50;99.90
12268;DHT22;6196;48.398;11.736;2023-03-14T06:56:38;9.50;99.90
12268;DHT22;6196;48.398;11.736;2023-03-14T06:59:05;9.60;99.90
12268;DHT22;6196;48.398;11.736;2023-03-14T07:01:32;9.50;99.90
12268;DHT22;6196;48.398;11.736;2023-03-14T07:04:02;9.40;99.90
12268;DHT22;6196;48.398;11.736;2023-03-14T07:06:29;9.60;99.90
12268;DHT22;6196;48.398;11.736;2023-03-14T07:08:56;9.70;99.90
12268;DHT22;6196;48.398;11.736;2023-03-14T07:11:23;9.80;99.90
12268;DHT22;6196;48.398;11.736;2023-03-14T07:13:50;9.80;99.90
12268;DHT22;6196;48.398;11.736;2023-03-14T07:16:17;9.80;99.90
12268;DHT22;6196;48.398;11.736;2023-03-14T07:18:44;9.70;99.90
12268;DHT22;6196;48.398;11.736;2023-03-14T07:21:12;9.80;99.90
12268;DHT22;6196;48.398;11.736;2023-03-14T07:23:39;9.80;99.90
12268;DHT22;6196;48.398;11.736;2023-03-14T07:26:06;9.80;99.90
12268;DHT22;6196;48.398;11.736;2023-03-14T07:28:33;9.80;99.90
12268;DHT22;6196;48.398;11.736;2023-03-14T07:31:00;9.80;99.90
12268;DHT22;6196;48.398;11.736;2023-03-14T07:33:27;9.90;99.90
12268;DHT22;6196;48.398;11.736;2023-03-14T07:35:54;9.90;99.90
12268;DHT22;6196;48.398;11.736;2023-03-14T07:38:21;9.90;99.90
12268;DHT22;6196;48.398;11.736;2023-03-14T07:40:48;9.90;99.90
12268;DHT22;6196;48.398;11.736;2023-03-14T07:43:16;10.00;99.90
12268;DHT22;6196;48.398;11.736;2023-03-14T07:45:46;10.00;99.90
12268;DHT22;6196;48.398;11.736;2023-03-14T07:48:16;9.80;99.90
12268;DHT22;6196;48.398;11.736;2023-03-14T07:50:43;10.00;99.90
12268;DHT22;6196;48.398;11.736;2023-03-14T07:53:10;10.00;99.90
12268;DHT22;6196;48.398;11.736;2023-03-14T07:55:39;10.00;99.90
12268;DHT22;6196;48.398;11.736;2023-03-14T07:58:06;10.00;99.90
12268;DHT22;6196;48.398;11.736;2023-03-14T08:00:33;10.10;99.90
12268;DHT22;6196;48.398;11.736;2023-03-14T08:02:59;10.30;99.90
12268;DHT22;6196;48.398;11.736;2023-03-14T08:05:26;10.50;99.90
12268;DHT22;6196;48.398;11.736;2023-03-14T08:07:53;10.40;99.90
12268;DHT22;6196;48.398;11.736;2023-03-14T08:10:20;10.30;99.90
12268;DHT22;6196;48.398;11.736;2023-03-14T08:12:52;10.50;99.90
12268;DHT22;6196;48.398;11.736;2023-03-14T08:15:21;10.50;99.90
12268;DHT22;6196;48.398;11.736;2023-03-14T08:17:49;10.70;99.90
12268;DHT22;6196;48.398;11.736;2023-03-14T08:20:18;10.70;99.90
12268;DHT22;6196;48.398;11.736;2023-03-14T08:22:45;10.70;99.90
12268;DHT22;6196;48.398;11.736;2023-03-14T08:25:12;10.70;99.90
12268;DHT22;6196;48.398;11.736;2023-03-14T08:27:39;10.70;99.90
12268;DHT22;6196;48.398;11.736;2023-03-14T08:30:12;10.90;99.90
12268;DHT22;6196;48.398;11.736;2023-03-14T08:32:43;10.90;99.90
12268;DHT22;6196;48.398;11.736;2023-03-14T08:35:11;11.10;99.90
12268;DHT22;6196;48.398;11.736;2023-03-14T08:37:38;11.20;99.90
12268;DHT22;6196;48.398;11.736;2023-03-14T08:40:06;11.20;99.90
12268;DHT22;6196;48.398;11.736;2023-03-14T08:42:34;11.20;99.90
12268;DHT22;6196;48.398;11.736;2023-03-14T08:45:00;11.10;99.90
12268;DHT22;6196;48.398;11.736;2023-03-14T08:47:27;11.30;99.90
12268;DHT22;6196;48.398;11.736;2023-03-14T08:49:54;11.30;99.90
12268;DHT22;6196;48.398;11.736;2023-03-14T08:52:21;11.20;99.90
12268;DHT22;6196;48.398;11.736;2023-03-14T08:54:48;11.10;99.90
12268;DHT22;6196;48.398;11.736;2023-03-14T08:57:15;11.10;99.90
12268;DHT22;6196;48.398;11.736;2023-03-14T08:59:42;11.30;99.90
12268;DHT22;6196;48.398;11.736;2023-03-14T09:02:11;11.40;99.90
12268;DHT22;6196;48.398;11.736;2023-03-14T09:04:39;11.60;99.90
12268;DHT22;6196;48.398;11.736;2023-03-14T09:07:06;11.60;99.90
12268;DHT22;6196;48.398;11.736;2023-03-14T09:09:33;11.80;99.90
12268;DHT22;6196;48.398;11.736;2023-03-14T09:12:00;11.90;99.90
12268;DHT22;6196;48.398;11.736;2023-03-14T09:14:26;11.50;99.90
12268;DHT22;6196;48.398;11.736;2023-03-14T09:16:54;11.60;99.90
12268;DHT22;6196;48.398;11.736;2023-03-14T09:19:21;11.80;99.90
12268;DHT22;6196;48.398;11.736;2023-03-14T09:21:47;11.90;99.90
12268;DHT22;6196;48.398;11.736;2023-03-14T09:24:16;11.90;99.90
12268;DHT22;6196;48.398;11.736;2023-03-14T09:26:43;12.00;99.90
12268;DHT22;6196;48.398;11.736;2023-03-14T09:29:10;11.70;99.90
12268;DHT22;6196;48.398;11.736;2023-03-14T09:31:37;11.70;99.90
12268;DHT22;6196;48.398;11.736;2023-03-14T09:34:04;11.80;99.90
12268;DHT22;6196;48.398;11.736;2023-03-14T09:36:31;11.90;99.90
12268;DHT22;6196;48.398;11.736;2023-03-14T09:38:57;12.00;99.90
12268;DHT22;6196;48.398;11.736;2023-03-14T09:41:30;12.00;99.90
12268;DHT22;6196;48.398;11.736;2023-03-14T09:44:11;12.00;99.90
12268;DHT22;6196;48.398;11.736;2023-03-14T09:46:44;12.10;99.90
12268;DHT22;6196;48.398;11.736;2023-03-14T09:49:23;12.00;99.90
12268;DHT22;6196;48.398;11.736;2023-03-14T09:51:55;12.00;99.90
12268;DHT22;6196;48.398;11.736;2023-03-14T09:54:40;11.90;99.90
12268;DHT22;6196;48.398;11.736;2023-03-14T09:57:16;11.70;99.90
12268;DHT22;6196;48.398;11.736;2023-03-14T09:59:46;12.10;99.90
12268;DHT22;6196;48.398;11.736;2023-03-14T10:02:25;12.10;99.90
12268;DHT22;6196;48.398;11.736;2023-03-14T10:04:58;12.30;99.90
12268;DHT22;6196;48.398;11.736;2023-03-14T10:07:32;12.30;99.90
12268;DHT22;6196;48.398;11.736;2023-03-14T10:10:00;12.20;99.90
12268;DHT22;6196;48.398;11.736;2023-03-14T10:12:32;12.40;99.90
12268;DHT22;6196;48.398;11.736;2023-03-14T10:15:03;12.30;99.90
12268;DHT22;6196;48.398;11.736;2023-03-14T10:17:42;12.20;99.90
12268;DHT22;6196;48.398;11.736;2023-03-14T10:20:37;12.30;99.90
12268;DHT22;6196;48.398;11.736;2023-03-14T10:25:44;12.40;99.90
12268;DHT22;6196;48.398;11.736;2023-03-14T10:28:30;12.40;99.90
12268;DHT22;6196;48.398;11.736;2023-03-14T10:31:00;12.60;99.90
12268;DHT22;6196;48.398;11.736;2023-03-14T10:33:30;12.90;99.90
12268;DHT22;6196;48.398;11.736;2023-03-14T10:36:00;13.10;99.90
12268;DHT22;6196;48.398;11.736;2023-03-14T10:38:34;12.80;99.90
12268;DHT22;6196;48.398;11.736;2023-03-14T10:41:14;12.50;99.90
12268;DHT22;6196;48.398;11.736;2023-03-14T10:43:57;12.40;99.90
12268;DHT22;6196;48.398;11.736;2023-03-14T10:46:29;12.40;99.90
12268;DHT22;6196;48.398;11.736;2023-03-14T10:48:57;12.70;99.90
12268;DHT22;6196;48.398;11.736;2023-03-14T10:51:29;12.70;99.90
12268;DHT22;6196;48.398;11.736;2023-03-14T10:54:04;12.60;99.90
12268;DHT22;6196;48.398;11.736;2023-03-14T10:56:39;12.50;99.90
12268;DHT22;6196;48.398;11.736;2023-03-14T10:59:11;12.50;99.90
12268;DHT22;6196;48.398;11.736;2023-03-14T11:07:40;12.70;99.90
12268;DHT22;6196;48.398;11.736;2023-03-14T11:15:57;13.90;99.90
12268;DHT22;6196;48.398;11.736;2023-03-14T11:19:10;13.90;99.90
12268;DHT22;6196;48.398;11.736;2023-03-14T11:21:46;13.70;99.90
12268;DHT22;6196;48.398;11.736;2023-03-14T11:27:34;13.60;99.90
12268;DHT22;6196;48.398;11.736;2023-03-14T11:33:24;14.00;99.90
12268;DHT22;6196;48.398;11.736;2023-03-14T11:36:08;14.60;99.90
12268;DHT22;6196;48.398;11.736;2023-03-14T11:38:52;15.80;99.90
12268;DHT22;6196;48.398;11.736;2023-03-14T11:41:31;16.20;99.90
12268;DHT22;6196;48.398;11.736;2023-03-14T11:44:04;15.80;99.90
12268;DHT22;6196;48.398;11.736;2023-03-14T11:46:43;15.90;99.90
12268;DHT22;6196;48.398;11.736;2023-03-14T11:52:13;15.20;99.90
12268;DHT22;6196;48.398;11.736;2023-03-14T11:54:54;14.80;99.90
12268;DHT22;6196;48.398;11.736;2023-03-14T11:57:24;14.40;99.90
12268;DHT22;6196;48.398;11.736;2023-03-14T12:00:19;14.40;99.90
12268;DHT22;6196;48.398;11.736;2023-03-14T12:12:02;13.90;99.90
12268;DHT22;6196;48.398;11.736;2023-03-14T12:19:40;13.70;99.90
12268;DHT22;6196;48.398;11.736;2023-03-14T12:22:29;13.70;99.90
12268;DHT22;6196;48.398;11.736;2023-03-14T12:25:02;13.70;99.90
12268;DHT22;6196;48.398;11.736;2023-03-14T12:27:49;13.70;99.90
12268;DHT22;6196;48.398;11.736;2023-03-14T12:30:34;13.70;99.90
12268;DHT22;6196;48.398;11.736;2023-03-14T12:38:23;13.30;99.90
12268;DHT22;6196;48.398;11.736;2023-03-14T12:43:54;13.60;99.90
12268;DHT22;6196;48.398;11.736;2023-03-14T12:46:25;13.70;99.90
12268;DHT22;6196;48.398;11.736;2023-03-14T12:51:37;13.50;99.90
12268;DHT22;6196;48.398;11.736;2023-03-14T12:57:21;14.00;99.90
12268;DHT22;6196;48.398;11.736;2023-03-14T13:00:00;14.30;99.90
12268;DHT22;6196;48.398;11.736;2023-03-14T13:02:44;14.20;99.90
12268;DHT22;6196;48.398;11.736;2023-03-14T13:05:18;13.80;99.90
12268;DHT22;6196;48.398;11.736;2023-03-14T13:10:27;13.10;99.90
12268;DHT22;6196;48.398;11.736;2023-03-14T13:13:24;13.00;99.90
12268;DHT22;6196;48.398;11.736;2023-03-14T13:15:57;13.00;99.90
12268;DHT22;6196;48.398;11.736;2023-03-14T13:18:34;13.00;99.90
12268;DHT22;6196;48.398;11.736;2023-03-14T13:21:15;13.10;99.90
12268;DHT22;6196;48.398;11.736;2023-03-14T13:24:06;13.30;99.90
12268;DHT22;6196;48.398;11.736;2023-03-14T13:26:44;13.30;99.90
12268;DHT22;6196;48.398;11.736;2023-03-14T13:29:24;12.90;99.90
12268;DHT22;6196;48.398;11.736;2023-03-14T13:31:57;13.10;99.90
12268;DHT22;6196;48.398;11.736;2023-03-14T13:34:33;12.90;99.90
12268;DHT22;6196;48.398;11.736;2023-03-14T13:37:01;12.80;99.90
12268;DHT22;6196;48.398;11.736;2023-03-14T13:39:28;12.90;99.90
12268;DHT22;6196;48.398;11.736;2023-03-14T13:42:00;12.60;99.90
12268;DHT22;6196;48.398;11.736;2023-03-14T13:44:36;12.90;99.90
12268;DHT22;6196;48.398;11.736;2023-03-14T13:47:06;13.00;99.90
12268;DHT22;6196;48.398;11.736;2023-03-14T13:49:38;13.00;99.90
12268;DHT22;6196;48.398;11.736;2023-03-14T13:52:22;12.80;99.90
12268;DHT22;6196;48.398;11.736;2023-03-14T13:54:54;12.70;99.90
12268;DHT22;6196;48.398;11.736;2023-03-14T13:57:21;12.50;99.90
12268;DHT22;6196;48.398;11.736;2023-03-14T14:00:00;12.10;99.90
12268;DHT22;6196;48.398;11.736;2023-03-14T14:02:37;11.90;99.90
12268;DHT22;6196;48.398;11.736;2023-03-14T14:05:05;11.80;99.90
12268;DHT22;6196;48.398;11.736;2023-03-14T14:07:33;11.50;99.90
12268;DHT22;6196;48.398;11.736;2023-03-14T14:10:00;11.40;99.90
12268;DHT22;6196;48.398;11.736;2023-03-14T14:12:35;11.20;99.90
12268;DHT22;6196;48.398;11.736;2023-03-14T14:15:14;11.20;99.90
12268;DHT22;6196;48.398;11.736;2023-03-14T14:18:06;11.20;99.90
12268;DHT22;6196;48.398;11.736;2023-03-14T14:20:40;11.00;99.90
12268;DHT22;6196;48.398;11.736;2023-03-14T14:23:24;10.70;99.90
12268;DHT22;6196;48.398;11.736;2023-03-14T14:25:58;10.50;99.90
12268;DHT22;6196;48.398;11.736;2023-03-14T14:28:29;10.20;99.90
12268;DHT22;6196;48.398;11.736;2023-03-14T14:33:45;10.30;99.90
12268;DHT22;6196;48.398;11.736;2023-03-14T14:36:30;10.30;99.90
12268;DHT22;6196;48.398;11.736;2023-03-14T14:39:00;9.90;99.90
12268;DHT22;6196;48.398;11.736;2023-03-14T14:41:33;9.80;99.90
12268;DHT22;6196;48.398;11.736;2023-03-14T14:44:04;9.50;99.90
12268;DHT22;6196;48.398;11.736;2023-03-14T14:46:33;9.50;99.90
12268;DHT22;6196;48.398;11.736;2023-03-14T14:49:05;9.20;99.90
12268;DHT22;6196;48.398;11.736;2023-03-14T14:51:44;9.10;99.90
12268;DHT22;6196;48.398;11.736;2023-03-14T14:54:15;8.90;99.90
12268;DHT22;6196;48.398;11.736;2023-03-14T14:56:52;8.80;99.90
12268;DHT22;6196;48.398;11.736;2023-03-14T14:59:25;8.80;99.90
12268;DHT22;6196;48.398;11.736;2023-03-14T15:01:56;8.70;99.90
12268;DHT22;6196;48.398;11.736;2023-03-14T15:04:30;8.70;99.90
12268;DHT22;6196;48.398;11.736;2023-03-14T15:06:57;8.80;99.90
12268;DHT22;6196;48.398;11.736;2023-03-14T15:09:24;8.80;99.90
12268;DHT22;6196;48.398;11.736;2023-03-14T15:11:51;8.90;99.90
12268;DHT22;6196;48.398;11.736;2023-03-14T15:14:18;8.90;99.90
12268;DHT22;6196;48.398;11.736;2023-03-14T15:16:45;8.80;99.90
12268;DHT22;6196;48.398;11.736;2023-03-14T15:19:24;8.90;99.90
12268;DHT22;6196;48.398;11.736;2023-03-14T15:21:53;8.90;99.90
12268;DHT22;6196;48.398;11.736;2023-03-14T15:24:21;8.80;99.90
12268;DHT22;6196;48.398;11.736;2023-03-14T15:26:48;8.90;99.90
12268;DHT22;6196;48.398;11.736;2023-03-14T15:29:15;9.00;99.90
12268;DHT22;6196;48.398;11.736;2023-03-14T15:31:43;9.10;99.90
12268;DHT22;6196;48.398;11.736;2023-03-14T15:34:10;9.10;99.90
12268;DHT22;6196;48.398;11.736;2023-03-14T15:36:37;9.10;99.90
12268;DHT22;6196;48.398;11.736;2023-03-14T15:39:06;9.20;99.90
12268;DHT22;6196;48.398;11.736;2023-03-14T15:41:33;9.30;99.90
12268;DHT22;6196;48.398;11.736;2023-03-14T15:44:00;9.40;99.90
12268;DHT22;6196;48.398;11.736;2023-03-14T15:46:27;9.60;99.90
12268;DHT22;6196;48.398;11.736;2023-03-14T15:48:56;9.70;99.90
12268;DHT22;6196;48.398;11.736;2023-03-14T15:51:23;9.70;99.90
12268;DHT22;6196;48.398;11.736;2023-03-14T15:53:50;9.80;99.90
12268;DHT22;6196;48.398;11.736;2023-03-14T15:56:20;9.60;99.90
12268;DHT22;6196;48.398;11.736;2023-03-14T15:58:50;9.60;99.90
12268;DHT22;6196;48.398;11.736;2023-03-14T16:01:17;9.50;99.90
12268;DHT22;6196;48.398;11.736;2023-03-14T16:03:45;9.30;99.90
12268;DHT22;6196;48.398;11.736;2023-03-14T16:06:13;9.20;99.90
12268;DHT22;6196;48.398;11.736;2023-03-14T16:08:41;9.20;99.90
12268;DHT22;6196;48.398;11.736;2023-03-14T16:11:09;9.10;99.90
12268;DHT22;6196;48.398;11.736;2023-03-14T16:13:38;9.00;99.90
12268;DHT22;6196;48.398;11.736;2023-03-14T16:16:05;8.90;99.90
12268;DHT22;6196;48.398;11.736;2023-03-14T16:18:35;9.00;99.90
12268;DHT22;6196;48.398;11.736;2023-03-14T16:21:06;8.90;99.90
12268;DHT22;6196;48.398;11.736;2023-03-14T16:23:35;8.90;99.90
12268;DHT22;6196;48.398;11.736;2023-03-14T16:26:07;8.70;99.90
12268;DHT22;6196;48.398;11.736;2023-03-14T16:28:35;8.60;99.90
12268;DHT22;6196;48.398;11.736;2023-03-14T16:31:04;8.50;99.90
12268;DHT22;6196;48.398;11.736;2023-03-14T16:33:34;8.60;99.90
12268;DHT22;6196;48.398;11.736;2023-03-14T16:36:02;8.60;99.90
12268;DHT22;6196;48.398;11.736;2023-03-14T16:38:32;8.60;99.90
12268;DHT22;6196;48.398;11.736;2023-03-14T16:41:05;8.60;99.90
12268;DHT22;6196;48.398;11.736;2023-03-14T16:43:33;8.60;99.90
12268;DHT22;6196;48.398;11.736;2023-03-14T16:46:03;8.50;99.90
12268;DHT22;6196;48.398;11.736;2023-03-14T16:48:32;8.40;99.90
12268;DHT22;6196;48.398;11.736;2023-03-14T16:50:59;8.30;99.90
12268;DHT22;6196;48.398;11.736;2023-03-14T16:53:26;8.30;99.90
12268;DHT22;6196;48.398;11.736;2023-03-14T16:55:56;8.20;99.90
12268;DHT22;6196;48.398;11.736;2023-03-14T16:58:24;8.10;99.90
12268;DHT22;6196;48.398;11.736;2023-03-14T17:00:51;8.10;99.90
12268;DHT22;6196;48.398;11.736;2023-03-14T17:03:18;8.20;99.90
12268;DHT22;6196;48.398;11.736;2023-03-14T17:05:50;8.20;99.90